Time;durP1;ratioP1;P1;durP2;ratioP2;P2;SDS_P1;SDS_P2;PMS_P1;PMS_P2;Temp;Humidity;BMP_temperature;BMP_pressure;BME280_temperature;BME280_humidity;BME280_pressure;Samples;Min_cycle;Max_cycle;Signal;HPM_P1;HPM_P2
2022/05/17 00:00:06;;;;;;;5.28;4.85;;;14.00;99.90;;;14.71;100.00;98377.53;5206414;28;20201;-60
2022/05/17 00:02:40;;;;;;;5.35;4.85;;;14.00;99.90;;;14.72;100.00;98382.78;5200071;28;20201;-59
2022/05/17 00:05:13;;;;;;;5.72;4.65;;;14.00;99.90;;;14.66;100.00;98376.44;5205186;28;20253;-59
2022/05/17 00:07:46;;;;;;;5.13;4.63;;;14.00;99.90;;;14.64;100.00;98371.22;5202183;28;20194;-61
2022/05/17 00:10:21;;;;;;;5.20;4.75;;;13.90;99.90;;;14.57;100.00;98375.19;5201432;28;20293;-62
2022/05/17 00:12:56;;;;;;;5.43;4.93;;;13.90;99.90;;;14.54;100.00;98382.75;5201805;28;20198;-57
2022/05/17 00:15:30;;;;;;;4.40;4.00;;;13.90;99.90;;;14.51;100.00;98382.56;5210296;28;20307;-59
2022/05/17 00:18:03;;;;;;;5.40;4.90;;;13.80;99.90;;;14.49;100.00;98376.47;5201799;28;20599;-62
2022/05/17 00:20:36;;;;;;;5.18;4.68;;;13.80;99.90;;;14.49;100.00;98375.56;5201448;28;20198;-61
2022/05/17 00:23:10;;;;;;;6.30;4.57;;;13.80;99.90;;;14.46;100.00;98372.84;5203294;28;20239;-59
2022/05/17 00:25:47;;;;;;;6.68;4.93;;;13.80;99.90;;;14.37;100.00;98374.16;5204672;28;20264;-59
2022/05/17 00:28:22;;;;;;;5.88;5.00;;;13.70;99.90;;;14.38;100.00;98375.03;5200115;28;20248;-58
2022/05/17 00:30:55;;;;;;;6.97;4.78;;;13.60;99.90;;;14.34;100.00;98379.16;5201497;28;20217;-58
2022/05/17 00:33:28;;;;;;;5.10;4.63;;;13.60;99.90;;;14.28;100.00;98377.94;5205361;28;20233;-59
2022/05/17 00:36:02;;;;;;;5.07;4.68;;;13.60;99.90;;;14.29;100.00;98379.72;5204524;28;20664;-61
2022/05/17 00:38:35;;;;;;;7.15;4.85;;;13.60;99.90;;;14.24;100.00;98384.63;5203874;28;20190;-64
2022/05/17 00:41:08;;;;;;;6.28;5.15;;;13.50;99.90;;;14.24;100.00;98382.03;5203380;28;20557;-62
2022/05/17 00:46:43;;;;;;;4.93;4.50;;;13.50;99.90;;;14.18;100.00;98381.72;5170135;28;20220;-64
2022/05/17 00:49:25;;;;;;;5.68;5.13;;;13.50;99.90;;;14.19;100.00;98380.91;5201555;28;20651;-59
2022/05/17 00:52:03;;;;;;;5.70;4.80;;;13.50;99.90;;;14.16;100.00;98380.75;5201966;28;20199;-58
2022/05/17 00:54:37;;;;;;;6.45;5.03;;;13.50;99.90;;;14.10;100.00;98383.03;5202165;28;20202;-62
2022/05/17 00:57:21;;;;;;;5.65;5.10;;;13.40;99.90;;;14.03;100.00;98378.38;5205911;28;20217;-61
2022/05/17 00:59:59;;;;;;;5.97;4.95;;;13.30;99.90;;;14.04;100.00;98377.56;5202777;28;20194;-59
2022/05/17 01:02:32;;;;;;;5.53;5.03;;;13.30;99.90;;;14.06;100.00;98376.84;5206717;28;20194;-58
2022/05/17 01:05:07;;;;;;;5.68;5.18;;;13.40;99.90;;;13.98;100.00;98373.88;5207880;28;20312;-60
2022/05/17 01:07:44;;;;;;;5.65;5.18;;;13.30;99.90;;;13.94;100.00;98377.09;5214344;28;20675;-60
2022/05/17 01:10:18;;;;;;;5.32;4.88;;;13.30;99.90;;;13.91;100.00;98378.63;5212731;28;20238;-60
2022/05/17 01:15:40;;;;;;;6.55;5.80;;;13.20;99.90;;;13.84;100.00;98374.84;5208350;28;20218;-61
2022/05/17 01:18:14;;;;;;;7.28;5.07;;;13.20;99.90;;;13.81;100.00;98369.53;5210525;28;20558;-55
2022/05/17 01:20:48;;;;;;;5.13;4.68;;;13.20;99.90;;;13.79;100.00;98363.44;5205533;28;20209;-59
2022/05/17 01:23:22;;;;;;;7.10;5.15;;;13.10;99.90;;;13.79;100.00;98370.25;5203339;28;20206;-62
2022/05/17 01:25:55;;;;;;;6.07;4.75;;;13.10;99.90;;;13.78;100.00;98364.25;5206217;28;20593;-64
2022/05/17 01:28:32;;;;;;;4.65;4.35;;;13.10;99.90;;;13.80;100.00;98362.66;5210701;28;20618;-59
2022/05/17 01:31:05;;;;;;;5.88;5.18;;;13.10;99.90;;;13.77;100.00;98361.63;5204876;28;20304;-59
2022/05/17 01:33:40;;;;;;;5.60;5.10;;;13.10;99.90;;;13.75;100.00;98366.66;5205911;28;20197;-62
2022/05/17 01:36:21;;;;;;;5.78;5.28;;;13.00;99.90;;;13.71;100.00;98363.06;5211032;28;20583;-63
2022/05/17 01:38:55;;;;;;;5.57;5.10;;;13.00;99.90;;;13.73;100.00;98360.53;5204631;28;20248;-60
2022/05/17 01:41:28;;;;;;;5.18;4.63;;;13.00;99.90;;;13.71;100.00;98357.03;5210509;28;20203;-57
2022/05/17 01:44:01;;;;;;;5.95;4.90;;;13.00;99.90;;;13.68;100.00;98362.00;5207336;28;20202;-58
2022/05/17 01:46:34;;;;;;;5.63;5.10;;;12.90;99.90;;;13.59;100.00;98362.41;5209921;28;20256;-61
2022/05/17 01:49:08;;;;;;;5.15;4.65;;;12.90;99.90;;;13.54;99.35;98355.25;5207740;28;20703;-58
2022/05/17 01:51:41;;;;;;;5.28;4.60;;;12.80;99.90;;;13.48;100.00;98361.81;5215221;28;20199;-60
2022/05/17 01:54:16;;;;;;;5.68;5.18;;;12.80;99.90;;;13.36;99.34;98366.28;5213503;28;20241;-59
2022/05/17 01:56:49;;;;;;;6.20;5.38;;;12.60;99.90;;;13.35;100.00;98367.09;5209084;28;20308;-57
2022/05/17 01:59:22;;;;;;;8.43;5.70;;;12.60;99.90;;;13.29;100.00;98366.75;5208573;28;20198;-60
2022/05/17 02:01:55;;;;;;;6.40;5.80;;;12.60;99.90;;;13.32;100.00;98364.34;5209312;28;20212;-58
2022/05/17 02:04:28;;;;;;;5.70;5.30;;;12.70;99.90;;;13.34;100.00;98362.75;5203892;28;20208;-56
2022/05/17 02:07:01;;;;;;;7.40;6.60;;;12.70;99.90;;;13.32;100.00;98361.78;5211323;28;20306;-57
2022/05/17 02:09:36;;;;;;;6.07;5.47;;;12.70;99.90;;;13.33;100.00;98362.66;5213739;28;20689;-59
2022/05/17 02:12:11;;;;;;;6.30;5.70;;;12.70;99.90;;;13.32;100.00;98361.78;5205002;28;20213;-61
2022/05/17 02:14:44;;;;;;;6.28;5.78;;;12.70;99.90;;;13.32;100.00;98361.78;5204592;28;20284;-55
2022/05/17 02:17:17;;;;;;;6.32;5.70;;;12.80;99.90;;;13.35;100.00;98354.25;5210081;28;20229;-58
2022/05/17 02:19:50;;;;;;;6.20;5.60;;;12.70;99.90;;;13.34;100.00;98359.31;5209629;28;20194;-57
2022/05/17 02:22:23;;;;;;;5.90;5.50;;;12.60;99.90;;;13.31;100.00;98357.47;5207332;28;20324;-57
2022/05/17 02:24:57;;;;;;;6.07;5.55;;;12.60;99.90;;;13.32;100.00;98361.78;5205034;28;20729;-58
2022/05/17 02:27:30;;;;;;;7.72;6.13;;;12.60;99.90;;;13.33;100.00;98362.66;5204256;28;20197;-59
2022/05/17 02:30:05;;;;;;;6.97;6.28;;;12.70;99.90;;;13.34;100.00;98370.47;5203203;28;20305;-58
2022/05/17 02:32:38;;;;;;;8.23;6.15;;;12.70;99.90;;;13.35;100.00;98367.09;5200084;28;20194;-61
2022/05/17 02:35:13;;;;;;;6.82;6.03;;;12.70;99.90;;;13.32;100.00;98372.06;5205978;28;20606;-58
2022/05/17 02:37:47;;;;;;;6.13;5.63;;;12.70;99.90;;;13.38;100.00;98381.78;5207054;28;20276;-58
2022/05/17 02:40:21;;;;;;;6.57;5.97;;;12.70;99.90;;;13.39;100.00;98376.75;5202432;28;20299;-54
2022/05/17 02:42:54;;;;;;;7.07;6.13;;;12.80;99.90;;;13.35;100.00;98377.38;5206390;28;20657;-61
2022/05/17 02:45:28;;;;;;;6.15;5.20;;;12.70;99.90;;;13.32;100.00;98372.06;5204731;28;20240;-56
2022/05/17 02:48:01;;;;;;;6.03;5.53;;;12.60;99.90;;;13.10;98.67;98374.22;5210059;28;20282;-55
2022/05/17 02:50:34;;;;;;;5.93;5.47;;;12.30;99.90;;;13.08;100.00;98386.97;5209063;28;20688;-58
2022/05/17 02:53:07;;;;;;;5.75;4.88;;;12.40;99.90;;;13.12;100.00;98381.19;5206959;28;20287;-60
2022/05/17 02:55:42;;;;;;;6.63;5.50;;;12.40;99.90;;;13.14;100.00;98378.72;5208730;28;20223;-56
2022/05/17 02:58:15;;;;;;;6.53;5.00;;;12.50;99.90;;;13.10;100.00;98380.22;5203992;28;20295;-57
2022/05/17 03:00:48;;;;;;;5.70;5.30;;;12.50;99.90;;;13.10;100.00;98379.34;5197859;28;20202;-58
2022/05/17 03:03:21;;;;;;;5.57;5.05;;;12.50;99.90;;;13.03;100.00;98393.53;5204847;28;20202;-59
2022/05/17 03:06:00;;;;;;;5.60;5.20;;;12.40;99.90;;;13.01;100.00;98395.13;5203794;28;20221;-58
2022/05/17 03:08:34;;;;;;;5.25;4.85;;;12.30;99.90;;;13.02;100.00;98392.66;5216771;28;20224;-58
2022/05/17 03:11:09;;;;;;;5.28;4.88;;;12.30;99.90;;;13.02;100.00;98397.78;5206217;28;20320;-58
2022/05/17 03:13:42;;;;;;;5.85;5.30;;;12.30;99.90;;;12.99;100.00;98396.69;5208432;28;20197;-60
2022/05/17 03:16:15;;;;;;;6.03;5.50;;;12.30;99.90;;;12.98;100.00;98400.94;5207655;28;20241;-56
2022/05/17 03:18:50;;;;;;;5.03;4.72;;;12.30;99.90;;;12.84;100.00;98407.00;5204780;28;20206;-62
2022/05/17 03:21:23;;;;;;;5.47;5.07;;;12.10;99.90;;;12.78;99.65;98401.50;5202410;28;20193;-59
2022/05/17 03:23:56;;;;;;;5.75;5.25;;;12.10;99.90;;;12.70;100.00;98402.75;5204674;28;20753;-56
2022/05/17 03:26:31;;;;;;;5.45;5.13;;;12.00;99.90;;;12.74;100.00;98404.72;5203862;28;20222;-59
2022/05/17 03:29:04;;;;;;;5.63;5.18;;;12.10;99.90;;;12.70;100.00;98405.31;5204450;28;20201;-59
2022/05/17 03:31:37;;;;;;;6.45;5.85;;;12.10;99.90;;;12.73;100.00;98410.63;5206387;28;20232;-61
2022/05/17 03:34:10;;;;;;;6.18;5.68;;;12.10;99.90;;;12.78;100.00;98414.34;5206443;28;20225;-61
2022/05/17 03:36:44;;;;;;;6.32;5.72;;;12.20;99.90;;;12.81;100.00;98417.06;5207004;28;20761;-59
2022/05/17 03:39:17;;;;;;;7.07;6.47;;;12.20;99.90;;;12.89;100.00;98415.84;5202508;28;20316;-61
2022/05/17 03:41:51;;;;;;;6.88;6.22;;;12.30;99.90;;;12.88;100.00;98421.78;5205172;28;20285;-58
2022/05/17 03:44:24;;;;;;;6.22;5.68;;;12.20;99.90;;;12.87;100.00;98420.00;5202737;28;20201;-58
2022/05/17 03:46:57;;;;;;;6.03;5.53;;;12.20;99.90;;;12.89;100.00;98420.09;5202548;28;20248;-59
2022/05/17 03:49:30;;;;;;;6.60;6.00;;;12.30;99.90;;;12.87;100.00;98421.69;5204922;28;20194;-60
2022/05/17 03:52:04;;;;;;;6.15;5.57;;;12.20;99.90;;;12.85;100.00;98429.31;5205697;28;20237;-61
2022/05/17 03:54:39;;;;;;;6.22;5.72;;;12.20;99.90;;;12.80;100.00;98430.72;5200319;28;20726;-61
2022/05/17 03:57:13;;;;;;;5.85;5.45;;;12.20;99.90;;;12.78;100.00;98429.72;5203516;28;20260;-60
2022/05/17 03:59:50;;;;;;;6.28;5.78;;;12.10;99.90;;;12.79;100.00;98442.66;5203138;28;20208;-57
2022/05/17 04:02:23;;;;;;;6.00;5.50;;;12.20;99.90;;;12.82;100.00;98430.00;5202309;28;20208;-59
2022/05/17 04:04:57;;;;;;;6.15;5.65;;;12.20;99.90;;;12.88;100.00;98433.69;5204915;28;20580;-59
2022/05/17 04:07:30;;;;;;;5.95;5.32;;;12.20;99.90;;;12.90;100.00;98433.00;5205842;28;20657;-57
2022/05/17 04:10:05;;;;;;;5.47;4.90;;;12.30;99.90;;;12.94;100.00;98434.94;5203273;28;20229;-56
2022/05/17 04:12:40;;;;;;;5.40;4.90;;;12.30;99.90;;;12.89;99.63;98433.78;5199847;28;20219;-58
2022/05/17 04:15:18;;;;;;;4.93;4.63;;;12.30;99.90;;;12.90;100.00;98438.13;5200730;28;20218;-58
2022/05/17 04:17:54;;;;;;;5.47;5.00;;;12.20;99.90;;;12.90;99.50;98443.25;5203332;28;20202;-58
2022/05/17 04:20:28;;;;;;;5.30;4.80;;;12.30;99.90;;;12.98;98.64;98442.00;5201911;28;20251;-60
2022/05/17 04:23:01;;;;;;;5.00;4.57;;;12.30;99.90;;;12.98;98.34;98436.00;5196914;28;20194;-61
2022/05/17 04:25:39;;;;;;;5.13;4.63;;;12.30;99.90;;;12.98;98.90;98441.13;5203372;28;20225;-55
2022/05/17 04:28:14;;;;;;;5.57;4.70;;;12.30;99.90;;;12.98;97.52;98447.16;5202850;28;20628;-56
2022/05/17 04:30:49;;;;;;;6.25;4.65;;;12.30;99.90;;;12.96;97.57;98451.31;5199870;28;20221;-58
2022/05/17 04:33:23;;;;;;;4.88;4.47;;;12.30;99.90;;;12.99;97.57;98448.94;5204490;28;20229;-56
2022/05/17 04:35:57;;;;;;;4.85;4.32;;;12.30;99.90;;;13.03;98.07;98453.44;5203811;28;20262;-60
2022/05/17 04:38:30;;;;;;;5.18;4.78;;;12.30;99.90;;;13.07;96.73;98455.34;5205028;28;20198;-54
2022/05/17 04:41:03;;;;;;;5.30;4.80;;;12.40;99.90;;;13.14;97.54;98456.63;5200916;28;20281;-56
2022/05/17 04:43:39;;;;;;;5.45;4.95;;;12.50;99.90;;;13.20;97.45;98453.50;5206379;28;20297;-59
2022/05/17 04:46:12;;;;;;;5.72;5.25;;;12.50;99.90;;;13.26;98.14;98464.16;5207144;28;20229;-59
2022/05/17 04:48:45;;;;;;;5.50;5.15;;;12.60;99.90;;;13.38;98.60;98459.69;5202609;28;20199;-60
2022/05/17 04:51:18;;;;;;;5.50;5.00;;;12.70;99.90;;;13.40;98.24;98458.09;5206913;28;20217;-61
2022/05/17 04:53:51;;;;;;;5.70;5.20;;;12.80;99.90;;;13.37;96.72;98468.22;5207597;28;20318;-60
2022/05/17 04:56:25;;;;;;;5.68;5.28;;;12.70;99.90;;;13.50;96.20;98460.34;5210706;28;20221;-60
2022/05/17 04:58:59;;;;;;;5.85;5.35;;;12.80;99.90;;;13.63;96.48;98455.91;5208652;28;20198;-61
2022/05/17 05:01:32;;;;;;;5.53;5.13;;;12.90;99.90;;;13.79;96.92;98475.59;5212757;28;20223;-60
2022/05/17 05:04:06;;;;;;;6.18;5.25;;;13.00;99.90;;;13.97;96.33;98469.78;5206384;28;20208;-59
2022/05/17 05:06:39;;;;;;;5.80;5.30;;;13.20;99.90;;;14.12;94.21;98467.13;5209701;28;20784;-59
2022/05/17 05:09:13;;;;;;;6.13;4.93;;;13.30;99.90;;;14.23;92.24;98471.97;5211272;28;20208;-60
2022/05/17 05:11:46;;;;;;;6.65;5.25;;;13.40;99.90;;;14.43;93.01;98472.19;5211446;28;20312;-59
2022/05/17 05:14:20;;;;;;;6.30;5.25;;;13.50;99.90;;;14.60;91.82;98482.53;5210604;28;20202;-60
2022/05/17 05:16:53;;;;;;;6.18;5.68;;;13.70;99.90;;;15.03;90.58;98477.84;5210450;28;20212;-59
2022/05/17 05:19:26;;;;;;;6.60;5.60;;;14.10;99.90;;;15.63;87.19;98474.69;5211584;28;20300;-53
2022/05/17 05:21:59;;;;;;;5.82;5.30;;;14.70;99.90;;;16.27;84.46;98476.78;5211954;28;20198;-60
2022/05/17 05:24:33;;;;;;;5.50;4.93;;;15.20;99.90;;;16.81;80.87;98474.88;5213326;28;20287;-56
2022/05/17 05:27:07;;;;;;;5.65;4.95;;;15.80;99.90;;;17.34;79.40;98489.13;5209703;28;20591;-65
2022/05/17 05:29:41;;;;;;;5.10;4.50;;;16.20;99.90;;;17.87;75.96;98484.34;5209479;28;20248;-62
2022/05/17 05:32:14;;;;;;;5.05;4.70;;;16.60;99.90;;;18.22;74.41;98481.34;5211508;28;20770;-58
2022/05/17 05:34:47;;;;;;;5.53;4.60;;;16.80;99.90;;;18.46;71.56;98486.56;5210856;28;20627;-57
2022/05/17 05:37:20;;;;;;;5.20;4.75;;;17.20;99.90;;;18.69;72.60;98483.91;5212528;28;20676;-60
2022/05/17 05:39:54;;;;;;;5.50;5.00;;;17.30;99.90;;;19.10;70.72;98479.28;5212789;28;20255;-56
2022/05/17 05:42:27;;;;;;;4.65;4.15;;;17.60;99.90;;;19.20;69.73;98483.06;5213901;28;20197;-68
2022/05/17 05:45:02;;;;;;;5.13;4.68;;;17.70;99.90;;;19.46;69.57;98476.13;5210250;28;20569;-55
2022/05/17 05:47:35;;;;;;;4.50;4.13;;;17.80;99.90;;;19.76;67.92;98478.84;5210968;28;20665;-56
2022/05/17 05:50:09;;;;;;;5.25;4.80;;;18.00;99.90;;;19.84;66.83;98484.28;5218161;28;20292;-59
2022/05/17 05:52:43;;;;;;;5.10;4.70;;;18.20;99.90;;;20.10;67.23;98485.06;5206791;28;20246;-56
2022/05/17 05:55:21;;;;;;;4.82;4.28;;;18.20;99.90;;;20.38;66.45;98484.13;5209429;28;20232;-62
2022/05/17 05:57:54;;;;;;;4.68;4.15;;;18.40;99.90;;;20.57;65.79;98480.34;5213445;28;20248;-59
2022/05/17 06:00:29;;;;;;;4.55;4.25;;;18.60;99.90;;;20.75;65.31;98485.19;5218831;28;20255;-59
2022/05/17 06:03:04;;;;;;;5.03;4.40;;;18.70;99.90;;;21.07;64.89;98484.28;5211200;28;20232;-61
2022/05/17 06:05:37;;;;;;;4.30;4.00;;;18.90;99.90;;;21.41;63.78;98479.97;5208874;28;20261;-64
2022/05/17 06:08:13;;;;;;;4.85;4.30;;;19.30;99.90;;;21.56;63.21;98484.66;5209171;28;20244;-61
2022/05/17 06:10:47;;;;;;;4.68;4.38;;;19.40;99.90;;;21.88;62.25;98481.91;5210611;28;20197;-60
2022/05/17 06:13:20;;;;;;;6.18;4.80;;;19.60;99.90;;;22.17;61.47;98482.53;5216450;28;20205;-61
2022/05/17 06:15:55;;;;;;;5.47;4.72;;;19.80;99.90;;;22.25;60.35;98474.06;5213626;28;20232;-60
2022/05/17 06:18:28;;;;;;;6.05;4.30;;;19.90;99.90;;;22.73;59.67;98480.22;5214977;28;20232;-60
2022/05/17 06:21:03;;;;;;;5.93;4.30;;;20.20;99.90;;;22.96;58.53;98477.19;5212839;28;20195;-60
2022/05/17 06:23:36;;;;;;;5.22;4.47;;;20.50;99.90;;;23.16;58.75;98481.03;5207057;28;20284;-59
2022/05/17 06:26:09;;;;;;;4.65;4.25;;;20.80;99.90;;;23.34;58.20;98483.94;5207312;28;20868;-60
2022/05/17 06:28:42;;;;;;;4.63;4.22;;;21.00;99.90;;;23.71;56.30;98481.94;5211395;28;20286;-56
2022/05/17 06:31:17;;;;;;;6.07;4.53;;;21.20;99.90;;;24.11;55.17;98481.63;5208824;28;20226;-56
2022/05/17 06:33:50;;;;;;;7.20;4.57;;;21.60;99.90;;;23.64;56.26;98485.28;5209585;28;20213;-59
2022/05/17 06:36:23;;;;;;;4.93;4.18;;;21.60;99.90;;;23.80;56.47;98474.22;5204867;28;20230;-58
2022/05/17 06:39:16;;;;;;;4.32;3.92;;;21.70;99.90;;;24.58;54.69;98482.25;5206968;28;20209;-53
2022/05/17 06:41:51;;;;;;;5.93;4.72;;;22.20;99.90;;;25.09;52.63;98483.63;5211275;28;20198;-58
2022/05/17 06:44:24;;;;;;;5.20;4.70;;;22.80;99.90;;;25.10;51.88;98482.78;5212109;28;20291;-57
2022/05/17 06:46:59;;;;;;;6.57;4.55;;;22.60;99.90;;;25.30;50.76;98475.13;5210514;28;20730;-55
2022/05/17 06:49:33;;;;;;;5.53;4.10;;;23.10;99.90;;;25.71;50.33;98477.16;5206270;28;20204;-56
2022/05/17 06:52:08;;;;;;;5.57;4.88;;;23.20;99.90;;;25.76;50.35;98475.47;5209232;28;20229;-60
2022/05/17 06:54:46;;;;;;;5.07;4.22;;;23.30;99.90;;;25.77;49.45;98478.94;5205252;28;20197;-59
2022/05/17 06:57:19;;;;;;;6.25;4.32;;;23.30;99.90;;;26.26;49.01;98471.38;5215606;28;20237;-58
2022/05/17 06:59:52;;;;;;;4.65;4.20;;;23.50;99.90;;;26.10;48.90;98478.31;5210803;28;20194;-60
2022/05/17 07:02:27;;;;;;;6.22;4.45;;;23.60;99.90;;;26.47;48.27;98479.34;5208310;28;20248;-59
2022/05/17 07:05:00;;;;;;;6.20;4.65;;;23.90;99.70;;;26.15;48.65;98475.69;5207767;28;20231;-57
2022/05/17 07:07:37;;;;;;;4.78;4.35;;;23.80;99.70;;;26.48;48.46;98482.84;5207479;28;20566;-59
2022/05/17 07:13:12;;;;;;;5.85;4.53;;;23.90;99.70;;;26.56;47.64;98469.81;5211011;28;20620;-58
2022/05/17 07:15:48;;;;;;;4.97;4.32;;;23.90;99.10;;;26.69;47.48;98476.81;5206179;28;20795;-57
2022/05/17 07:18:25;;;;;;;5.20;4.70;;;24.00;99.30;;;26.73;47.25;98478.59;5204236;28;20189;-57
2022/05/17 07:20:59;;;;;;;5.35;4.63;;;24.10;98.70;;;26.89;46.76;98474.22;5210077;28;20196;-58
2022/05/17 07:23:32;;;;;;;5.28;4.60;;;24.20;98.20;;;26.43;47.81;98474.94;5211076;28;20199;-58
2022/05/17 07:26:05;;;;;;;5.72;4.47;;;24.10;98.80;;;26.60;48.06;98482.03;5211346;28;20366;-58
2022/05/17 07:28:41;;;;;;;5.10;4.05;;;24.20;98.80;;;26.71;47.52;98470.69;5210977;28;20684;-60
2022/05/17 07:31:15;;;;;;;6.72;4.72;;;24.20;98.80;;;26.84;47.61;98470.72;5211844;28;20296;-59
2022/05/17 07:33:49;;;;;;;4.70;4.30;;;24.20;98.40;;;27.14;46.62;98469.91;5211396;28;21914;-61
2022/05/17 07:36:23;;;;;;;4.65;4.25;;;24.60;98.20;;;27.22;46.62;98470.81;5205294;28;20229;-61
2022/05/17 07:38:57;;;;;;;6.05;4.57;;;24.50;98.20;;;27.61;45.73;98466.41;5212782;28;20198;-63
2022/05/17 07:41:30;;;;;;;5.18;4.68;;;24.60;97.70;;;27.34;44.46;98468.19;5211437;28;20290;-63
2022/05/17 07:44:04;;;;;;;4.80;4.30;;;24.70;96.70;;;27.65;43.65;98467.28;5213859;28;20649;-62
2022/05/17 07:46:37;;;;;;;6.15;4.60;;;24.70;96.30;;;27.73;43.71;98466.41;5207402;28;20351;-63
2022/05/17 07:49:12;;;;;;;6.03;4.07;;;24.80;96.80;;;28.04;43.18;98466.34;5207122;28;20288;-63
2022/05/17 07:51:45;;;;;;;4.93;4.40;;;25.00;96.40;;;28.35;42.85;98467.09;5212163;28;20200;-63
2022/05/17 07:54:18;;;;;;;6.85;4.38;;;25.00;95.70;;;28.44;42.17;98471.47;5211358;28;20285;-62
2022/05/17 07:56:51;;;;;;;4.28;3.88;;;25.10;95.20;;;28.37;41.71;98473.25;5212946;28;20327;-63
2022/05/17 07:59:24;;;;;;;7.18;4.32;;;25.30;94.70;;;28.49;41.53;98467.94;5207315;28;20635;-62
2022/05/17 08:01:57;;;;;;;4.43;4.00;;;25.40;94.60;;;27.85;43.46;98463.78;5207925;28;20219;-63
2022/05/17 08:04:31;;;;;;;5.95;4.10;;;25.50;95.10;;;27.84;43.11;98464.66;5211913;28;20250;-63
2022/05/17 08:07:07;;;;;;;6.85;4.30;;;25.50;94.90;;;27.88;42.45;98462.03;5211746;28;20216;-62
2022/05/17 08:09:40;;;;;;;5.10;4.25;;;25.40;94.40;;;28.01;42.03;98466.34;5211477;28;20189;-63
2022/05/17 08:12:13;;;;;;;4.50;4.10;;;25.40;94.10;;;27.82;43.07;98461.16;5209639;28;20225;-63
2022/05/17 08:14:48;;;;;;;5.45;3.80;;;25.70;93.70;;;27.91;44.22;98456.75;5210944;28;20197;-62
2022/05/17 08:17:21;;;;;;;4.03;3.47;;;25.90;94.40;;;27.95;42.26;98461.13;5208458;28;20201;-62
2022/05/17 08:19:55;;;;;;;4.60;3.60;;;26.10;92.90;;;27.86;41.44;98451.50;5212656;28;20639;-62
2022/05/17 08:22:29;;;;;;;4.15;3.60;;;26.00;91.70;;;27.85;41.71;98453.25;5208082;28;20204;-60
2022/05/17 08:27:54;;;;;;;3.47;3.17;;;26.10;92.40;;;27.44;42.32;98447.16;5206890;28;20240;-63
2022/05/17 08:30:29;;;;;;;3.90;3.60;;;26.00;92.00;;;27.35;42.70;98448.91;5207137;28;20197;-63
2022/05/17 08:33:17;;;;;;;4.72;3.85;;;25.80;92.00;;;27.60;42.58;98451.53;5208112;28;20226;-62
2022/05/17 08:35:54;;;;;;;4.30;3.20;;;26.10;91.80;;;27.87;41.88;98457.63;5209255;28;20256;-59
2022/05/17 08:38:30;;;;;;;5.03;3.40;;;26.20;91.80;;;27.91;41.20;98457.63;5203360;28;20661;-62
2022/05/17 08:41:13;;;;;;;4.57;2.90;;;26.30;91.40;;;28.02;41.21;98453.22;5209082;28;20192;-63
2022/05/17 08:43:54;;;;;;;4.32;3.53;;;26.60;90.80;;;28.14;39.82;98451.44;5211924;28;20217;-63
2022/05/17 08:46:41;;;;;;;4.32;3.08;;;26.40;90.10;;;27.81;40.39;98448.00;5206279;28;20704;-61
2022/05/17 08:49:20;;;;;;;3.70;3.40;;;26.30;90.00;;;27.81;40.90;98448.00;5211514;28;20715;-62
2022/05/17 08:51:58;;;;;;;3.55;3.13;;;26.30;90.60;;;27.78;40.32;98447.97;5210339;28;20220;-62
2022/05/17 08:54:38;;;;;;;4.07;3.35;;;26.20;90.10;;;27.71;40.92;98444.50;5210793;28;20220;-59
2022/05/17 08:57:20;;;;;;;4.55;3.17;;;26.20;90.20;;;27.67;41.22;98442.78;5214950;28;20632;-62
2022/05/17 08:59:53;;;;;;;5.00;3.47;;;26.30;90.50;;;27.49;41.42;98437.53;5201873;28;20294;-62
2022/05/17 09:02:34;;;;;;;4.05;3.45;;;26.20;90.50;;;27.58;40.37;98440.13;5208642;28;20587;-60
2022/05/17 09:05:24;;;;;;;4.97;3.60;;;26.10;90.10;;;27.19;41.47;98447.19;5194014;28;20595;-62
2022/05/17 09:08:13;;;;;;;4.40;3.45;;;25.70;90.70;;;27.17;41.90;98435.81;5210506;28;20296;-62
2022/05/17 09:10:50;;;;;;;5.35;3.38;;;25.90;90.40;;;27.29;41.50;98434.94;5209553;28;20196;-62
2022/05/17 09:13:29;;;;;;;4.25;3.35;;;26.00;90.00;;;27.36;41.03;98439.31;5211266;28;20235;-62
2022/05/17 09:16:24;;;;;;;5.07;3.50;;;26.00;89.30;;;27.22;40.96;98434.06;5203311;28;20225;-62
2022/05/17 09:18:58;;;;;;;4.80;3.40;;;26.10;89.20;;;27.03;42.52;98435.75;5203333;28;20539;-62
2022/05/17 09:21:33;;;;;;;5.63;3.38;;;25.90;90.70;;;26.99;42.85;98435.78;5213977;28;20228;-62
2022/05/17 09:24:12;;;;;;;3.80;3.17;;;25.90;90.80;;;27.16;41.69;98434.94;5210121;28;20193;-62
2022/05/17 09:26:51;;;;;;;4.93;2.90;;;26.00;89.90;;;27.29;40.90;98433.16;5214035;28;20602;-62
2022/05/17 09:29:37;;;;;;;4.93;3.38;;;26.00;89.20;;;27.54;41.22;98433.16;5214988;28;20244;-60
2022/05/17 09:32:12;;;;;;;4.10;3.22;;;26.50;89.30;;;27.58;42.48;98434.88;5214315;28;20204;-61
2022/05/17 09:34:47;;;;;;;4.93;3.28;;;26.70;90.10;;;27.50;41.55;98431.41;5217461;28;20220;-62
2022/05/17 09:37:21;;;;;;;4.43;3.05;;;26.40;89.80;;;27.45;40.94;98434.03;5208975;28;20205;-61
2022/05/17 09:39:56;;;;;;;4.95;3.20;;;26.30;89.20;;;27.43;39.31;98430.53;5210324;28;20240;-61
2022/05/17 09:42:35;;;;;;;4.97;3.33;;;26.30;85.70;;;27.07;41.73;98432.28;5215115;28;20231;-62
2022/05/17 09:45:15;;;;;;;5.38;3.65;;;26.00;89.10;;;27.33;41.79;98429.69;5215467;28;20221;-62
2022/05/17 09:47:57;;;;;;;9.07;5.78;;;26.10;90.20;;;27.48;41.47;98422.66;5214828;28;20228;-62
2022/05/17 09:53:44;;;;;;;4.20;3.05;;;26.20;88.90;;;27.24;41.12;98428.78;5200173;28;20642;-62
2022/05/17 09:56:26;;;;;;;5.03;3.15;;;25.90;89.80;;;26.73;43.59;98434.88;5216035;28;20227;-62
2022/05/17 09:58:59;;;;;;;3.58;2.85;;;25.60;91.00;;;26.70;42.83;98436.63;5213276;28;20296;-62
2022/05/17 10:01:39;;;;;;;3.10;2.80;;;25.60;90.70;;;26.68;42.24;98427.84;5207148;28;20300;-60
2022/05/17 10:04:19;;;;;;;3.90;3.20;;;25.60;90.00;;;26.91;40.96;98426.13;5207764;28;20196;-61
2022/05/17 10:06:55;;;;;;;3.80;3.08;;;25.90;88.00;;;26.91;41.11;98426.13;5206441;28;20256;-60
2022/05/17 10:09:32;;;;;;;5.30;3.92;;;25.90;87.80;;;26.99;41.44;98425.28;5213314;28;20198;-61
2022/05/17 10:12:16;;;;;;;4.20;3.15;;;25.90;88.90;;;27.17;41.92;98418.28;5209322;28;20225;-61
2022/05/17 10:14:54;;;;;;;4.50;3.28;;;26.10;89.10;;;27.40;40.83;98418.28;5199943;28;20208;-61
2022/05/17 10:17:35;;;;;;;3.75;2.97;;;26.30;87.70;;;27.28;41.01;98420.94;5206323;28;20572;-58
2022/05/17 10:20:15;;;;;;;5.35;3.47;;;26.20;87.80;;;27.27;41.18;98429.69;5205404;28;20195;-64
2022/05/17 10:23:00;;;;;;;4.18;2.85;;;26.20;89.20;;;26.49;43.25;98424.28;5205789;28;20251;-60
2022/05/17 10:25:42;;;;;;;4.65;2.78;;;25.60;90.10;;;26.50;43.38;98431.31;5205541;28;20253;-61
2022/05/17 10:28:30;;;;;;;3.05;2.78;;;25.40;90.50;;;26.41;41.65;98420.75;5202158;28;20270;-61
2022/05/17 10:31:11;;;;;;;3.63;2.47;;;25.10;89.10;;;26.25;41.83;98418.09;5205199;28;20247;-61
2022/05/17 10:33:57;;;;;;;3.90;2.85;;;24.90;88.50;;;26.25;42.42;98415.47;5208241;28;20674;-61
2022/05/17 10:36:40;;;;;;;4.72;3.88;;;25.10;89.30;;;26.56;42.21;98418.22;5200053;28;20245;-58
2022/05/17 10:39:31;;;;;;;4.38;2.75;;;25.40;88.80;;;26.83;40.58;98420.00;5200267;28;20248;-61
2022/05/17 10:42:06;;;;;;;5.05;3.13;;;25.80;86.30;;;27.02;39.41;98417.41;5204298;28;20713;-60
2022/05/17 10:44:44;;;;;;;3.65;2.67;;;26.00;84.80;;;27.16;39.28;98411.31;5208994;28;20204;-60
2022/05/17 10:47:33;;;;;;;4.97;2.80;;;26.20;84.80;;;26.98;40.25;98405.13;5215998;28;20196;-61
2022/05/17 10:50:29;;;;;;;4.45;3.17;;;25.90;85.70;;;26.70;42.42;98410.38;5215626;28;20680;-60
2022/05/17 10:53:25;;;;;;;3.58;2.75;;;25.60;89.00;;;26.57;41.53;98411.22;5208979;28;20568;-60
2022/05/17 10:56:15;;;;;;;4.05;2.50;;;25.40;88.10;;;26.15;41.23;98399.69;5204704;28;20665;-60
2022/05/17 10:59:04;;;;;;;4.15;2.60;;;25.10;86.90;;;26.25;43.01;98404.13;5200538;28;20289;-59
2022/05/17 11:01:45;;;;;;;4.53;2.80;;;25.20;89.40;;;26.36;42.33;98397.16;5205357;28;20197;-62
2022/05/17 11:05:01;;;;;;;3.72;2.75;;;25.40;88.00;;;26.22;41.93;98396.25;5208585;28;20681;-60
2022/05/17 11:07:50;;;;;;;4.28;2.65;;;25.20;87.40;;;25.93;43.09;98397.00;5206742;28;20201;-59